Time;durP1;ratioP1;P1;durP2;ratioP2;P2;SDS_P1;SDS_P2;PMS_P1;PMS_P2;Temp;Humidity;BMP_temperature;BMP_pressure;BME280_temperature;BME280_humidity;BME280_pressure;Samples;Min_cycle;Max_cycle;Signal;HPM_P1;HPM_P2
2023/01/26 00:01:44;;;;;;;13.38;7.82;;;19.60;51.30;;;;;;5052332;28;20033;-74
2023/01/26 00:04:10;;;;;;;15.45;8.10;;;19.60;51.10;;;;;;5062050;28;20286;-75
2023/01/26 00:06:36;;;;;;;13.73;7.30;;;19.70;50.90;;;;;;5065177;28;20476;-75
2023/01/26 00:09:03;;;;;;;13.73;7.30;;;19.70;51.10;;;;;;5069144;28;20021;-75
2023/01/26 00:11:29;;;;;;;17.08;7.40;;;19.70;51.00;;;;;;5069638;28;20120;-76
2023/01/26 00:13:57;;;;;;;12.43;6.93;;;19.70;51.10;;;;;;5053653;28;20503;-77
2023/01/26 00:16:23;;;;;;;17.05;8.13;;;19.70;51.10;;;;;;5070461;28;20036;-75
2023/01/26 00:18:49;;;;;;;12.98;6.68;;;19.80;51.40;;;;;;5072228;28;20408;-75
2023/01/26 00:21:18;;;;;;;14.13;6.97;;;19.70;51.50;;;;;;5070927;28;20033;-75
2023/01/26 00:23:44;;;;;;;11.70;6.90;;;19.80;51.70;;;;;;5072808;28;20052;-75
2023/01/26 00:26:14;;;;;;;13.43;7.18;;;19.70;51.60;;;;;;5070146;28;20036;-75
2023/01/26 00:28:39;;;;;;;;;;;19.80;51.70;;;;;;5071466;28;20587;-74
2023/01/26 00:31:17;;;;;;;10.88;6.10;;;19.80;51.80;;;;;;5069825;28;19916;-75
2023/01/26 00:33:43;;;;;;;14.23;6.65;;;19.80;51.90;;;;;;5071021;28;20545;-74
2023/01/26 00:36:09;;;;;;;11.55;6.75;;;19.80;51.90;;;;;;5071142;28;20099;-75
2023/01/26 00:38:36;;;;;;;9.40;5.78;;;19.80;52.00;;;;;;5070374;28;20033;-75
2023/01/26 00:41:01;;;;;;;13.40;6.80;;;19.80;52.10;;;;;;5070494;28;20039;-75
2023/01/26 00:43:27;;;;;;;11.02;6.20;;;19.80;52.10;;;;;;5070369;28;20032;-75
2023/01/26 00:45:53;;;;;;;10.88;6.38;;;19.80;52.10;;;;;;5071594;28;20063;-75
2023/01/26 00:48:19;;;;;;;14.80;6.10;;;19.80;52.20;;;;;;5065833;28;20021;-74
2023/01/26 00:50:45;;;;;;;10.43;5.85;;;19.80;52.30;;;;;;5050368;28;20028;-74
2023/01/26 00:53:10;;;;;;;11.48;6.03;;;19.80;52.20;;;;;;5037268;28;20032;-74
2023/01/26 00:55:36;;;;;;;10.80;6.00;;;19.80;52.50;;;;;;5070057;28;20027;-76
2023/01/26 00:58:05;;;;;;;13.40;6.43;;;19.80;52.40;;;;;;5069947;28;20378;-75
2023/01/26 01:00:32;;;;;;;14.55;5.82;;;19.80;52.40;;;;;;5070218;28;20023;-76
2023/01/26 01:02:58;;;;;;;20.42;6.30;;;19.80;52.50;;;;;;5053187;28;20035;-75
2023/01/26 01:05:26;;;;;;;18.60;6.32;;;19.80;52.50;;;;;;5063111;28;20028;-75
2023/01/26 01:07:52;;;;;;;15.98;6.13;;;19.80;52.90;;;;;;5050064;28;20033;-75
2023/01/26 01:10:18;;;;;;;15.23;7.10;;;19.80;52.80;;;;;;5049846;28;20084;-75
2023/01/26 01:12:44;;;;;;;16.95;6.28;;;19.80;52.70;;;;;;5051480;28;20107;-75
2023/01/26 01:15:10;;;;;;;19.65;6.90;;;19.80;52.80;;;;;;5049651;28;20029;-75
2023/01/26 01:17:36;;;;;;;20.90;6.78;;;19.80;53.00;;;;;;5033661;28;20033;-75
2023/01/26 01:20:04;;;;;;;17.00;6.35;;;19.70;52.90;;;;;;5049532;28;20029;-74
2023/01/26 01:22:31;;;;;;;14.15;6.22;;;19.70;53.10;;;;;;5057591;28;20028;-75
2023/01/26 01:24:57;;;;;;;38.42;7.03;;;19.80;53.30;;;;;;5069482;28;20071;-75
2023/01/26 01:27:24;;;;;;;11.45;5.78;;;19.80;53.30;;;;;;5069602;28;20055;-75
2023/01/26 01:29:50;;;;;;;11.38;6.10;;;19.70;53.40;;;;;;5069341;28;20028;-75
2023/01/26 01:32:16;;;;;;;21.58;6.28;;;19.70;53.50;;;;;;5070156;28;20086;-75
2023/01/26 01:34:42;;;;;;;12.35;5.70;;;19.70;53.50;;;;;;5069459;28;20056;-75
2023/01/26 01:37:08;;;;;;;13.80;5.82;;;19.70;53.60;;;;;;5069573;28;20488;-75
2023/01/26 01:39:33;;;;;;;11.75;5.78;;;19.70;53.70;;;;;;5061286;28;20099;-75
2023/01/26 01:41:59;;;;;;;15.93;5.32;;;19.70;53.70;;;;;;5061592;28;20388;-75
2023/01/26 01:44:25;;;;;;;15.15;6.25;;;19.80;53.80;;;;;;5050952;28;20064;-76
2023/01/26 01:47:18;;;;;;;13.75;5.22;;;19.70;53.90;;;;;;5056258;28;20033;-75
2023/01/26 01:49:49;;;;;;;12.60;5.57;;;19.70;54.00;;;;;;5070671;28;20024;-75
2023/01/26 01:52:25;;;;;;;12.13;5.63;;;19.80;54.20;;;;;;5069660;28;20400;-75
2023/01/26 01:54:57;;;;;;;12.20;5.18;;;19.80;54.40;;;;;;5064363;28;20029;-75
2023/01/26 01:57:30;;;;;;;12.98;5.60;;;19.80;54.50;;;;;;5053182;28;20544;-75
2023/01/26 02:00:06;;;;;;;12.18;5.03;;;19.80;54.50;;;;;;5063333;28;20467;-75
2023/01/26 02:02:39;;;;;;;13.35;5.50;;;19.80;54.70;;;;;;5068918;28;20040;-75
2023/01/26 02:05:20;;;;;;;13.75;4.80;;;19.80;54.80;;;;;;5062628;28;20029;-75
2023/01/26 02:07:46;;;;;;;19.40;5.15;;;19.80;55.00;;;;;;5048852;28;20029;-75
2023/01/26 02:10:18;;;;;;;15.10;6.13;;;19.80;55.20;;;;;;5052094;28;20085;-75
2023/01/26 02:12:46;;;;;;;18.02;5.40;;;19.70;55.10;;;;;;5068365;28;20033;-75
2023/01/26 02:15:12;;;;;;;14.27;5.47;;;19.70;55.50;;;;;;5059812;28;20461;-75
2023/01/26 02:17:39;;;;;;;15.13;5.80;;;19.80;55.70;;;;;;5058392;28;20441;-75
2023/01/26 02:20:33;;;;;;;14.02;5.30;;;19.80;55.70;;;;;;5045951;28;20099;-74
2023/01/26 02:23:03;;;;;;;12.88;5.60;;;19.80;55.50;;;;;;5051479;28;20078;-75
2023/01/26 02:25:39;;;;;;;17.65;6.20;;;19.70;55.60;;;;;;5037116;28;20086;-74
2023/01/26 02:28:05;;;;;;;15.82;5.10;;;19.70;55.60;;;;;;5064681;28;20029;-75
2023/01/26 02:30:31;;;;;;;9.18;5.18;;;19.70;55.50;;;;;;5051025;28;20032;-75
2023/01/26 02:32:57;;;;;;;11.80;5.50;;;19.70;55.30;;;;;;5065981;28;20029;-75
2023/01/26 02:35:23;;;;;;;14.48;5.15;;;19.70;55.70;;;;;;5066324;28;20025;-74
2023/01/26 02:37:49;;;;;;;10.85;5.35;;;19.70;55.50;;;;;;5067353;28;20073;-75
2023/01/26 02:40:20;;;;;;;10.68;5.03;;;19.70;55.60;;;;;;5057656;28;20025;-75
2023/01/26 02:42:46;;;;;;;13.48;5.68;;;19.70;55.60;;;;;;5069213;28;20074;-75
2023/01/26 02:45:15;;;;;;;7.68;4.70;;;19.70;55.40;;;;;;5037209;28;20136;-75
2023/01/26 02:47:43;;;;;;;13.43;5.30;;;19.70;55.60;;;;;;5057612;28;20036;-75
2023/01/26 02:50:09;;;;;;;11.73;4.65;;;19.70;55.50;;;;;;5068748;28;20429;-75
2023/01/26 02:52:36;;;;;;;12.32;5.43;;;19.70;55.40;;;;;;5069232;28;20472;-75
2023/01/26 02:55:24;;;;;;;11.85;5.47;;;19.70;55.60;;;;;;5068584;28;20036;-75
2023/01/26 02:57:52;;;;;;;9.90;4.90;;;19.70;55.50;;;;;;5051523;28;20044;-75
2023/01/26 03:00:21;;;;;;;12.63;5.25;;;19.70;55.70;;;;;;5035621;28;20094;-75
2023/01/26 03:02:50;;;;;;;10.75;5.00;;;19.70;55.90;;;;;;5052718;28;20040;-75
2023/01/26 03:05:16;;;;;;;9.88;4.75;;;19.70;56.00;;;;;;5065417;28;20396;-75
2023/01/26 03:07:42;;;;;;;9.68;5.18;;;19.70;56.00;;;;;;5070869;28;20108;-75
2023/01/26 03:10:09;;;;;;;9.57;5.07;;;19.70;56.10;;;;;;5071387;28;20028;-75
2023/01/26 03:12:35;;;;;;;10.55;5.10;;;19.70;56.00;;;;;;5052081;28;20047;-75
2023/01/26 03:17:45;;;;;;;10.10;5.20;;;19.70;56.00;;;;;;5071568;28;20089;-75
2023/01/26 03:28:29;;;;;;;8.38;4.97;;;19.70;56.10;;;;;;5057961;28;20513;-75
2023/01/26 03:30:57;;;;;;;11.43;5.28;;;19.70;56.30;;;;;;5038752;28;20025;-74
2023/01/26 03:33:24;;;;;;;8.93;4.75;;;19.70;56.50;;;;;;5067417;28;20078;-75
2023/01/26 03:35:53;;;;;;;7.38;4.78;;;19.70;56.30;;;;;;5070567;28;20037;-75
2023/01/26 03:38:20;;;;;;;9.77;5.03;;;19.70;56.40;;;;;;5060537;28;20368;-75
2023/01/26 03:57:20;;;;;;;8.15;4.75;;;19.70;56.90;;;;;;5051345;28;20481;-75
2023/01/26 03:59:47;;;;;;;9.90;5.00;;;19.70;56.50;;;;;;5055637;28;20040;-75
2023/01/26 04:10:36;;;;;;;9.90;4.80;;;19.70;56.40;;;;;;5063762;28;20024;-75
2023/01/26 04:21:34;;;;;;;8.60;4.80;;;19.70;56.60;;;;;;5062226;28;20082;-75
2023/01/26 04:24:12;;;;;;;7.32;4.63;;;19.70;56.70;;;;;;5036244;28;20358;-75
2023/01/26 04:26:40;;;;;;;9.43;4.80;;;19.70;56.60;;;;;;5070178;28;20025;-74
2023/01/26 04:29:11;;;;;;;8.55;4.78;;;19.70;56.70;;;;;;5070707;28;20542;-75
2023/01/26 04:31:39;;;;;;;8.20;4.27;;;19.70;56.90;;;;;;5061559;28;20431;-75
2023/01/26 04:34:08;;;;;;;7.50;4.78;;;19.70;56.70;;;;;;5055782;28;20513;-75
2023/01/26 04:36:34;;;;;;;10.13;4.90;;;19.70;57.00;;;;;;5069309;28;20024;-75
2023/01/26 04:39:00;;;;;;;9.32;4.65;;;19.70;57.20;;;;;;5070335;28;20481;-75
2023/01/26 04:41:31;;;;;;;8.95;5.05;;;19.70;57.20;;;;;;5041495;28;20032;-76
2023/01/26 04:44:02;;;;;;;8.80;4.82;;;19.70;56.90;;;;;;5054102;28;20032;-74
2023/01/26 04:46:29;;;;;;;9.70;4.80;;;19.70;57.50;;;;;;5053450;28;20032;-75
2023/01/26 04:48:54;;;;;;;7.03;4.50;;;19.70;57.40;;;;;;5053826;28;20124;-75
2023/01/26 04:51:21;;;;;;;9.75;4.82;;;19.70;57.20;;;;;;5053768;28;20031;-75
2023/01/26 04:53:48;;;;;;;9.32;4.47;;;19.70;57.30;;;;;;5070531;28;20078;-75
2023/01/26 04:56:22;;;;;;;7.93;4.40;;;19.70;57.20;;;;;;5069924;28;20035;-75
2023/01/26 04:58:49;;;;;;;8.02;4.85;;;19.70;57.50;;;;;;5070158;28;20103;-75
2023/01/26 05:01:16;;;;;;;6.95;4.45;;;19.70;57.10;;;;;;5065721;28;20074;-75
2023/01/26 05:03:42;;;;;;;9.45;4.90;;;19.70;57.30;;;;;;5066869;28;20029;-75
2023/01/26 05:06:08;;;;;;;8.85;4.38;;;19.70;57.20;;;;;;5024038;28;20032;-75
2023/01/26 05:08:36;;;;;;;7.63;4.30;;;19.70;57.50;;;;;;5050835;28;20468;-75
2023/01/26 05:11:02;;;;;;;7.35;4.60;;;19.70;57.40;;;;;;5048811;28;20098;-75
2023/01/26 05:14:03;;;;;;;7.82;4.78;;;19.70;57.70;;;;;;5050456;28;20032;-75
2023/01/26 05:16:42;;;;;;;7.28;4.60;;;19.70;57.80;;;;;;5068365;28;20040;-75
2023/01/26 05:19:20;;;;;;;8.00;4.70;;;19.70;57.90;;;;;;5057185;28;20078;-75
2023/01/26 05:21:57;;;;;;;8.23;4.57;;;19.70;58.00;;;;;;5049271;28;20028;-75
2023/01/26 05:24:23;;;;;;;8.50;4.78;;;19.70;58.00;;;;;;5068882;28;20031;-75
2023/01/26 05:29:43;;;;;;;9.57;4.70;;;19.70;58.00;;;;;;5065016;28;20476;-75
2023/01/26 05:32:10;;;;;;;7.07;4.35;;;19.70;58.00;;;;;;5060131;28;20074;-74
2023/01/26 05:34:36;;;;;;;9.55;4.88;;;19.70;58.10;;;;;;5061716;28;20103;-75
2023/01/26 05:37:03;;;;;;;8.40;4.63;;;19.70;58.00;;;;;;5067408;28;20028;-74
2023/01/26 05:39:30;;;;;;;9.10;4.60;;;19.70;58.20;;;;;;5051550;28;20032;-74
2023/01/26 05:41:58;;;;;;;8.43;4.60;;;19.70;58.10;;;;;;5057180;28;20480;-75
2023/01/26 05:44:44;;;;;;;7.78;4.53;;;19.70;58.30;;;;;;5051374;28;20040;-75
2023/01/26 05:47:12;;;;;;;8.75;4.45;;;19.70;58.90;;;;;;5048186;28;20400;-75
2023/01/26 05:49:41;;;;;;;8.20;4.80;;;19.70;58.20;;;;;;5063462;28;20052;-74
2023/01/26 05:52:10;;;;;;;8.50;4.78;;;19.70;58.40;;;;;;5068487;28;20434;-75
2023/01/26 05:54:36;;;;;;;7.55;4.20;;;19.70;58.40;;;;;;5060030;28;20017;-74
2023/01/26 05:57:02;;;;;;;8.88;4.88;;;19.70;58.40;;;;;;5068744;28;20047;-74
2023/01/26 05:59:29;;;;;;;8.52;4.50;;;19.70;58.40;;;;;;5040615;28;20489;-74
2023/01/26 06:01:56;;;;;;;9.45;4.90;;;19.80;58.30;;;;;;5032439;28;20036;-75
2023/01/26 06:04:22;;;;;;;7.97;5.05;;;19.70;58.30;;;;;;5068926;28;20021;-75
2023/01/26 06:06:57;;;;;;;8.18;4.55;;;19.80;58.40;;;;;;5051231;28;20033;-75
2023/01/26 06:09:27;;;;;;;10.75;4.82;;;19.70;58.50;;;;;;5056514;28;20025;-75
2023/01/26 06:12:15;;;;;;;9.68;4.80;;;19.70;58.40;;;;;;5033051;28;20021;-75
2023/01/26 06:14:57;;;;;;;7.03;4.30;;;19.80;58.60;;;;;;5056734;28;20045;-74
2023/01/26 06:17:30;;;;;;;8.52;4.30;;;19.80;58.70;;;;;;5052053;28;20150;-75
2023/01/26 06:19:58;;;;;;;7.72;4.47;;;19.70;58.70;;;;;;5051001;28;20488;-74
2023/01/26 06:22:24;;;;;;;8.00;4.57;;;19.70;58.60;;;;;;5068959;28;20494;-75
2023/01/26 06:24:50;;;;;;;7.13;4.53;;;19.80;58.60;;;;;;5040634;28;20037;-74
2023/01/26 06:27:17;;;;;;;8.02;4.85;;;19.70;58.60;;;;;;5066890;28;20050;-74
2023/01/26 06:29:45;;;;;;;8.40;4.50;;;19.70;58.70;;;;;;5062100;28;20040;-74
2023/01/26 06:32:12;;;;;;;7.95;4.70;;;19.70;58.50;;;;;;5034523;28;20037;-74
2023/01/26 06:34:38;;;;;;;12.77;5.22;;;19.70;58.60;;;;;;5071240;28;20028;-74
2023/01/26 06:37:06;;;;;;;8.00;4.22;;;19.70;58.70;;;;;;5029169;28;20052;-74
2023/01/26 06:39:35;;;;;;;8.65;4.88;;;19.70;58.40;;;;;;5072765;28;20028;-74
2023/01/26 06:42:01;;;;;;;9.68;5.20;;;19.70;58.50;;;;;;5057151;28;20033;-74
2023/01/26 06:44:26;;;;;;;10.77;5.10;;;19.70;58.40;;;;;;5052703;28;20539;-74
2023/01/26 06:46:53;;;;;;;7.60;4.53;;;19.70;58.30;;;;;;5051634;28;20480;-73
2023/01/26 06:49:19;;;;;;;7.47;4.45;;;19.70;58.60;;;;;;5058775;28;20062;-74
2023/01/26 06:51:53;;;;;;;7.07;4.45;;;19.70;58.50;;;;;;5062061;28;20028;-74
2023/01/26 06:54:20;;;;;;;7.85;4.78;;;19.70;58.60;;;;;;5062843;28;20518;-74
2023/01/26 06:57:00;;;;;;;11.07;5.30;;;19.70;58.70;;;;;;5059934;28;20064;-74
2023/01/26 06:59:45;;;;;;;6.60;4.15;;;19.70;58.60;;;;;;5058359;28;20582;-74
2023/01/26 07:02:22;;;;;;;7.60;4.50;;;19.70;58.80;;;;;;5058828;28;20035;-74
2023/01/26 07:04:48;;;;;;;9.68;4.32;;;19.70;58.70;;;;;;5061264;28;20119;-74
2023/01/26 07:07:14;;;;;;;7.78;4.22;;;19.80;59.00;;;;;;5058679;28;20096;-74
2023/01/26 07:09:40;;;;;;;10.75;4.50;;;19.70;59.20;;;;;;5062461;28;20510;-74
2023/01/26 07:12:06;;;;;;;10.07;5.05;;;19.80;59.00;;;;;;5070671;28;20024;-75
2023/01/26 07:14:32;;;;;;;16.80;5.20;;;19.80;58.90;;;;;;5059767;28;20481;-75
2023/01/26 07:16:58;;;;;;;12.95;4.78;;;19.70;59.00;;;;;;5068644;28;20117;-75
2023/01/26 07:19:24;;;;;;;11.80;4.93;;;19.70;59.00;;;;;;5056682;28;20511;-75
2023/01/26 07:21:49;;;;;;;15.15;5.22;;;19.70;59.60;;;;;;5067294;28;20029;-75
2023/01/26 07:24:15;;;;;;;10.52;4.82;;;19.70;59.00;;;;;;5062111;28;20035;-75
2023/01/26 07:26:41;;;;;;;10.70;4.70;;;19.80;59.00;;;;;;5071711;28;20098;-72
2023/01/26 07:29:06;;;;;;;8.15;4.32;;;19.80;58.80;;;;;;5071264;28;20073;-72
2023/01/26 07:31:32;;;;;;;27.52;5.55;;;19.80;59.40;;;;;;5061086;28;20389;-72
2023/01/26 07:33:58;;;;;;;17.27;5.53;;;19.70;59.20;;;;;;5071835;28;20172;-72
2023/01/26 07:36:24;;;;;;;18.88;5.20;;;19.70;59.30;;;;;;5039753;28;20043;-72
2023/01/26 07:38:49;;;;;;;21.05;5.45;;;19.70;59.30;;;;;;5072882;28;20036;-72
2023/01/26 07:41:15;;;;;;;17.70;5.57;;;19.70;59.30;;;;;;5058617;28;20025;-72
2023/01/26 07:43:41;;;;;;;19.58;6.80;;;19.70;60.20;;;;;;5069328;28;20028;-72
2023/01/26 07:46:09;;;;;;;27.27;7.35;;;19.80;61.80;;;;;;5058864;28;20020;-72
2023/01/26 07:48:35;;;;;;;25.00;7.95;;;19.90;63.30;;;;;;5050806;28;20428;-72
2023/01/26 07:51:02;;;;;;;24.73;6.80;;;19.90;63.10;;;;;;5063481;28;20295;-71
2023/01/26 07:53:29;;;;;;;20.15;7.40;;;19.90;60.80;;;;;;5061044;28;20090;-73
2023/01/26 07:56:13;;;;;;;22.15;7.05;;;19.90;63.00;;;;;;5072261;28;20031;-73
2023/01/26 07:58:39;;;;;;;25.08;7.13;;;19.90;62.30;;;;;;5052679;28;20035;-75
2023/01/26 08:01:08;;;;;;;27.45;7.85;;;19.90;62.00;;;;;;5067328;28;20397;-75
2023/01/26 08:03:34;;;;;;;29.40;7.00;;;19.90;61.20;;;;;;5069682;28;20477;-74
2023/01/26 08:06:00;;;;;;;29.40;5.97;;;19.80;61.50;;;;;;5064822;28;20075;-75
2023/01/26 08:08:26;;;;;;;17.42;5.88;;;19.80;61.20;;;;;;5086971;28;20028;-74
2023/01/26 08:10:56;;;;;;;16.67;5.80;;;19.80;61.10;;;;;;5066586;28;20257;-74
2023/01/26 08:13:21;;;;;;;21.80;5.13;;;19.80;60.90;;;;;;5061749;28;20480;-74
2023/01/26 08:15:47;;;;;;;13.25;5.25;;;19.80;60.70;;;;;;5070410;28;20082;-75
2023/01/26 08:18:13;;;;;;;12.45;5.90;;;19.80;60.50;;;;;;5071179;28;20029;-75
2023/01/26 08:20:38;;;;;;;18.73;5.57;;;19.80;60.40;;;;;;5062385;28;20017;-75
2023/01/26 08:23:04;;;;;;;24.02;6.60;;;19.70;60.30;;;;;;5066950;28;20048;-74
2023/01/26 08:25:32;;;;;;;16.55;5.30;;;19.70;60.10;;;;;;5064894;28;20406;-74
2023/01/26 08:27:58;;;;;;;21.00;5.68;;;19.70;60.10;;;;;;5071464;28;20515;-74
2023/01/26 08:30:23;;;;;;;16.02;5.68;;;19.70;60.60;;;;;;5060088;28;20025;-74
2023/01/26 08:32:49;;;;;;;15.88;5.65;;;19.70;59.90;;;;;;5050574;28;20022;-75
2023/01/26 08:35:15;;;;;;;13.75;5.32;;;19.70;59.90;;;;;;5056224;28;20036;-74
2023/01/26 08:37:41;;;;;;;12.20;5.70;;;19.70;59.80;;;;;;5064395;28;20028;-74
2023/01/26 08:40:09;;;;;;;13.93;5.43;;;19.70;59.90;;;;;;5054268;28;20076;-74
2023/01/26 08:42:35;;;;;;;10.93;5.05;;;19.70;59.90;;;;;;5050507;28;20037;-74
2023/01/26 08:45:01;;;;;;;20.85;5.53;;;19.70;59.90;;;;;;5041238;28;20025;-75
2023/01/26 08:47:27;;;;;;;13.00;5.45;;;19.70;59.80;;;;;;5064638;28;20035;-75
2023/01/26 08:49:52;;;;;;;13.55;5.13;;;19.70;59.80;;;;;;5069983;28;20028;-74
2023/01/26 08:52:20;;;;;;;11.32;4.78;;;19.70;59.80;;;;;;5055894;28;20039;-74
2023/01/26 08:54:46;;;;;;;14.00;5.03;;;19.70;59.80;;;;;;5067100;28;20017;-74
2023/01/26 08:57:11;;;;;;;11.65;4.93;;;19.70;59.80;;;;;;5052609;28;20024;-74
2023/01/26 08:59:37;;;;;;;12.93;4.90;;;19.70;59.60;;;;;;5053063;28;20128;-74
2023/01/26 09:02:03;;;;;;;12.95;4.70;;;19.70;59.70;;;;;;5070875;28;20029;-74
2023/01/26 09:04:29;;;;;;;13.25;5.05;;;19.70;60.00;;;;;;5066379;28;20025;-75
2023/01/26 09:06:55;;;;;;;14.13;5.07;;;19.70;59.70;;;;;;5045970;28;20098;-76
2023/01/26 09:09:20;;;;;;;13.90;5.15;;;19.70;59.70;;;;;;5055863;28;20021;-75
2023/01/26 09:11:46;;;;;;;11.20;4.68;;;19.70;59.60;;;;;;5065063;28;20099;-75
2023/01/26 09:14:12;;;;;;;9.85;4.82;;;19.80;59.60;;;;;;5060929;28;20384;-76
2023/01/26 09:16:38;;;;;;;13.50;4.78;;;19.80;59.50;;;;;;5054070;28;20040;-76
2023/01/26 09:19:04;;;;;;;10.60;4.70;;;19.70;60.00;;;;;;5058830;28;20035;-76
2023/01/26 09:21:29;;;;;;;9.77;4.20;;;19.70;59.40;;;;;;5064784;28;20485;-76
2023/01/26 09:23:56;;;;;;;9.95;4.55;;;19.70;59.40;;;;;;5055971;28;20032;-75
2023/01/26 09:26:22;;;;;;;16.80;4.88;;;19.70;59.40;;;;;;5068144;28;20029;-76
2023/01/26 09:28:51;;;;;;;8.00;4.47;;;19.70;59.30;;;;;;5051781;28;20071;-75
2023/01/26 09:31:17;;;;;;;10.57;4.50;;;19.70;59.20;;;;;;5051717;28;20111;-76
2023/01/26 09:33:43;;;;;;;9.05;4.65;;;19.70;59.30;;;;;;5069628;28;20031;-75
2023/01/26 09:36:10;;;;;;;9.93;4.72;;;19.70;59.20;;;;;;5067609;28;20029;-76
2023/01/26 09:38:36;;;;;;;12.98;5.15;;;19.70;59.20;;;;;;5069436;28;20047;-76
2023/01/26 09:41:21;;;;;;;9.10;4.18;;;19.70;59.20;;;;;;5070791;28;20039;-74
2023/01/26 09:43:51;;;;;;;7.95;4.30;;;19.70;59.20;;;;;;5069026;28;20036;-75
2023/01/26 09:46:45;;;;;;;11.93;4.82;;;19.70;59.20;;;;;;5057592;28;20090;-75
2023/01/26 09:49:24;;;;;;;11.32;5.10;;;19.70;59.20;;;;;;5050974;28;20037;-76
2023/01/26 09:52:04;;;;;;;9.25;4.70;;;19.70;59.30;;;;;;5055664;28;20020;-76
2023/01/26 09:54:43;;;;;;;9.50;4.32;;;19.70;59.20;;;;;;5070716;28;20104;-75
2023/01/26 09:57:15;;;;;;;11.63;4.50;;;19.70;59.30;;;;;;5050472;28;20025;-75
2023/01/26 09:59:46;;;;;;;12.73;4.90;;;19.70;59.20;;;;;;5050994;28;20087;-75
2023/01/26 10:02:33;;;;;;;14.27;5.00;;;19.70;59.30;;;;;;5052618;28;20043;-75
2023/01/26 10:05:06;;;;;;;8.25;4.60;;;19.70;59.20;;;;;;5062618;28;20036;-76
2023/01/26 10:07:35;;;;;;;8.00;4.35;;;19.70;59.20;;;;;;5069994;28;20059;-76
2023/01/26 10:10:03;;;;;;;8.48;4.32;;;19.70;59.20;;;;;;5072606;28;20167;-75
2023/01/26 10:12:36;;;;;;;8.20;4.15;;;19.80;59.30;;;;;;5074817;28;20053;-75
2023/01/26 10:15:28;;;;;;;10.35;4.32;;;19.70;59.20;;;;;;5068373;28;20206;-75
2023/01/26 10:17:55;;;;;;;8.40;4.43;;;19.70;59.60;;;;;;5059014;28;20036;-75
2023/01/26 10:20:20;;;;;;;12.30;4.55;;;19.70;59.20;;;;;;5080681;28;20036;-75
2023/01/26 10:23:11;;;;;;;12.93;4.85;;;19.70;59.20;;;;;;5066513;28;20539;-76
2023/01/26 10:25:43;;;;;;;9.55;4.75;;;19.70;59.20;;;;;;5053139;28;20139;-76
2023/01/26 10:28:20;;;;;;;8.98;4.43;;;19.70;59.30;;;;;;5054066;28;20089;-75
2023/01/26 10:30:47;;;;;;;7.30;4.22;;;19.70;59.30;;;;;;5055203;28;20098;-75
2023/01/26 10:33:18;;;;;;;8.77;4.25;;;19.70;59.20;;;;;;5074376;28;20376;-75
2023/01/26 10:35:45;;;;;;;7.10;4.18;;;19.70;59.20;;;;;;5072897;28;20040;-76
2023/01/26 10:38:27;;;;;;;7.93;4.40;;;19.70;59.20;;;;;;5074421;28;20024;-76
2023/01/26 10:40:54;;;;;;;12.25;4.70;;;19.70;59.20;;;;;;5074200;28;20047;-76
2023/01/26 10:43:20;;;;;;;8.60;4.25;;;19.70;59.20;;;;;;5067110;28;20489;-75
2023/01/26 10:45:46;;;;;;;11.15;4.75;;;19.70;59.10;;;;;;5052471;28;20029;-75
2023/01/26 10:48:18;;;;;;;8.07;4.20;;;19.70;59.30;;;;;;5059816;28;20493;-75
2023/01/26 10:50:46;;;;;;;8.75;4.47;;;19.70;59.20;;;;;;5072944;28;20033;-75
2023/01/26 10:53:30;;;;;;;8.55;4.38;;;19.70;59.20;;;;;;5039439;28;20400;-75
2023/01/26 10:56:02;;;;;;;9.38;4.88;;;19.70;59.20;;;;;;5053039;28;20025;-75
2023/01/26 10:58:45;;;;;;;8.40;4.57;;;19.70;59.10;;;;;;5069464;28;20055;-75
2023/01/26 11:01:14;;;;;;;11.57;4.35;;;19.70;59.10;;;;;;5064254;28;20040;-75
2023/01/26 11:03:41;;;;;;;9.95;4.75;;;19.70;59.20;;;;;;5073813;28;20029;-75
2023/01/26 11:06:16;;;;;;;12.38;4.72;;;19.70;59.00;;;;;;5073062;28;20056;-76
2023/01/26 11:08:42;;;;;;;10.98;5.35;;;19.70;59.00;;;;;;5058985;28;20025;-75
2023/01/26 11:11:28;;;;;;;34.45;7.45;;;19.80;61.00;;;;;;5053866;28;20025;-75
2023/01/26 11:14:13;;;;;;;27.52;6.38;;;19.80;63.00;;;;;;5052582;28;20408;-75
2023/01/26 11:16:54;;;;;;;25.95;6.57;;;19.80;62.40;;;;;;5052956;28;20040;-76
2023/01/26 11:20:06;;;;;;;13.63;5.32;;;19.80;63.20;;;;;;5052708;28;20025;-75
2023/01/26 11:22:40;;;;;;;21.70;5.15;;;19.80;61.60;;;;;;5033146;28;20033;-75
2023/01/26 11:25:29;;;;;;;18.15;5.93;;;19.70;61.50;;;;;;5048485;28;20098;-75
2023/01/26 11:28:31;;;;;;;15.60;5.57;;;19.70;60.90;;;;;;5052210;28;20044;-75
2023/01/26 11:31:30;;;;;;;18.30;5.97;;;19.70;61.80;;;;;;5050740;28;20032;-75
2023/01/26 11:34:11;;;;;;;15.13;5.90;;;19.80;61.70;;;;;;5085561;28;20028;-75
2023/01/26 11:37:07;;;;;;;15.18;6.15;;;19.80;62.70;;;;;;5071535;28;20074;-75
2023/01/26 11:39:36;;;;;;;14.95;5.85;;;19.80;63.80;;;;;;5068781;28;20048;-75
2023/01/26 11:42:13;;;;;;;12.80;5.22;;;19.80;63.50;;;;;;5068671;28;20036;-75
2023/01/26 11:44:46;;;;;;;14.93;5.53;;;19.80;62.90;;;;;;5071377;28;20067;-74
2023/01/26 11:47:35;;;;;;;13.50;6.28;;;19.80;61.30;;;;;;5069345;28;20031;-75
2023/01/26 11:50:22;;;;;;;14.75;6.20;;;19.80;62.20;;;;;;5047704;28;20037;-77
2023/01/26 11:53:22;;;;;;;13.02;5.68;;;19.70;61.60;;;;;;5050855;28;20025;-78
2023/01/26 11:55:54;;;;;;;13.20;5.78;;;19.70;61.00;;;;;;5051311;28;20546;-76
2023/01/26 11:58:30;;;;;;;12.90;5.53;;;19.70;61.30;;;;;;5051580;28;20048;-76
2023/01/26 12:00:59;;;;;;;14.15;5.50;;;19.70;61.20;;;;;;5051540;28;20392;-76
2023/01/26 12:03:34;;;;;;;10.40;5.35;;;19.80;61.50;;;;;;5051993;28;20033;-77
2023/01/26 12:06:04;;;;;;;14.35;5.57;;;19.80;60.70;;;;;;5050628;28;20032;-76
2023/01/26 12:08:44;;;;;;;10.93;5.30;;;19.80;60.80;;;;;;5050484;28;20539;-76
2023/01/26 12:11:22;;;;;;;9.15;5.22;;;19.80;61.20;;;;;;5051561;28;20037;-76
2023/01/26 12:14:12;;;;;;;15.70;4.80;;;19.80;60.60;;;;;;5054851;28;20021;-76
2023/01/26 12:17:02;;;;;;;13.05;6.63;;;19.80;60.40;;;;;;5056928;28;20044;-76
2023/01/26 12:19:35;;;;;;;12.55;6.90;;;19.80;60.30;;;;;;5017132;28;1056319;-76
2023/01/26 12:22:37;;;;;;;13.20;7.00;;;19.80;60.40;;;;;;5034344;28;20029;-75
2023/01/26 12:25:13;;;;;;;10.85;6.38;;;19.80;60.30;;;;;;5057014;28;20055;-76
2023/01/26 12:27:46;;;;;;;15.70;6.70;;;19.80;60.10;;;;;;5052299;28;20037;-76
2023/01/26 12:30:23;;;;;;;12.70;7.43;;;19.80;60.30;;;;;;5062291;28;20100;-76
2023/01/26 12:32:49;;;;;;;11.35;6.45;;;19.80;60.30;;;;;;5072089;28;20040;-76
2023/01/26 12:35:26;;;;;;;20.42;6.53;;;19.80;60.40;;;;;;5059687;28;20077;-75
2023/01/26 12:38:12;;;;;;;16.70;6.90;;;19.80;60.90;;;;;;5085659;28;20050;-75
2023/01/26 12:41:03;;;;;;;13.95;6.03;;;19.80;61.00;;;;;;5059958;28;20040;-76
2023/01/26 12:43:43;;;;;;;11.13;6.15;;;19.80;60.60;;;;;;5050995;28;20065;-76
2023/01/26 12:46:11;;;;;;;12.90;5.68;;;19.80;60.50;;;;;;5051039;28;20036;-76
2023/01/26 12:48:50;;;;;;;11.70;5.82;;;19.80;60.30;;;;;;5051665;28;20029;-76
2023/01/26 12:51:29;;;;;;;11.52;5.93;;;19.80;60.20;;;;;;5051343;28;20083;-75
2023/01/26 12:54:12;;;;;;;12.93;5.80;;;19.80;60.10;;;;;;5062320;28;20028;-76
2023/01/26 12:56:50;;;;;;;11.45;5.68;;;19.80;60.90;;;;;;5071255;28;20047;-75
2023/01/26 12:59:30;;;;;;;18.58;6.30;;;19.80;60.30;;;;;;5067826;28;20516;-75
2023/01/26 13:01:56;;;;;;;14.15;6.70;;;19.80;60.60;;;;;;5051219;28;20468;-76
2023/01/26 13:04:23;;;;;;;13.77;5.53;;;19.80;60.60;;;;;;5051645;28;20032;-75
2023/01/26 13:07:03;;;;;;;11.88;6.15;;;19.80;60.50;;;;;;5050853;28;20033;-75
2023/01/26 13:09:29;;;;;;;16.08;5.90;;;19.80;60.10;;;;;;5050460;28;20103;-75
2023/01/26 13:11:57;;;;;;;14.38;6.22;;;19.80;59.80;;;;;;5051180;28;20036;-75
2023/01/26 13:14:29;;;;;;;10.77;6.07;;;19.80;59.70;;;;;;5051968;28;20098;-75
2023/01/26 13:16:55;;;;;;;11.30;6.10;;;19.80;59.60;;;;;;5050696;28;20547;-75
2023/01/26 13:20:13;;;;;;;12.25;6.57;;;19.80;59.60;;;;;;5051250;28;20072;-75
2023/01/26 13:22:40;;;;;;;13.60;5.90;;;19.80;59.50;;;;;;4969750;28;20034;-75
2023/01/26 13:25:16;;;;;;;14.95;5.93;;;19.80;59.50;;;;;;4970160;28;20038;-75
2023/01/26 13:28:00;;;;;;;12.25;5.95;;;19.80;59.60;;;;;;5021520;28;20041;-75
2023/01/26 13:30:28;;;;;;;10.23;5.90;;;19.80;59.60;;;;;;5051500;28;20029;-76
2023/01/26 13:33:10;;;;;;;9.35;5.80;;;19.80;59.60;;;;;;5051100;28;20033;-75
2023/01/26 13:35:36;;;;;;;10.55;5.45;;;19.70;59.60;;;;;;5049440;28;20498;-75
2023/01/26 13:38:40;;;;;;;12.05;6.18;;;19.80;59.60;;;;;;5050857;28;20112;-75
2023/01/26 13:41:09;;;;;;;15.80;5.90;;;19.80;59.70;;;;;;5049795;28;20025;-75
2023/01/26 13:43:39;;;;;;;13.43;6.10;;;19.80;59.70;;;;;;5050933;28;20021;-75
2023/01/26 13:46:20;;;;;;;9.25;5.38;;;19.80;59.70;;;;;;5050367;28;20032;-75
2023/01/26 13:48:51;;;;;;;9.70;5.47;;;19.80;59.70;;;;;;5032974;28;20029;-75